createdAt,value
2019-02-14T00:00:29.730Z,97.50
2019-02-14T00:02:58.949Z,97.30
2019-02-14T00:05:28.133Z,97.10
2019-02-14T00:07:57.250Z,97.10
2019-02-14T00:10:26.368Z,97.10
2019-02-14T00:12:55.653Z,97.30
2019-02-14T00:15:24.781Z,97.60
2019-02-14T00:17:53.952Z,97.70
2019-02-14T00:20:23.069Z,97.60
2019-02-14T00:22:52.258Z,97.70
2019-02-14T00:25:21.384Z,97.90
2019-02-14T00:27:50.562Z,97.90
2019-02-14T00:30:19.885Z,97.50
2019-02-14T00:32:49.149Z,97.60
2019-02-14T00:35:24.845Z,97.50
2019-02-14T00:37:49.107Z,97.70
2019-02-14T00:40:18.226Z,97.70
2019-02-14T00:42:47.404Z,97.50
2019-02-14T00:45:16.532Z,97.50
2019-02-14T00:47:45.710Z,97.30
2019-02-14T00:50:14.824Z,96.90
2019-02-14T00:52:44.017Z,96.90
2019-02-14T00:55:13.237Z,97.30
2019-02-14T00:57:42.416Z,97.50
2019-02-14T01:00:12.245Z,97.70
2019-02-14T01:02:41.443Z,97.60
2019-02-14T01:05:10.648Z,97.50
2019-02-14T01:07:39.934Z,97.60
2019-02-14T01:10:09.352Z,97.70
2019-02-14T01:12:38.532Z,98.00
2019-02-14T01:15:10.167Z,97.80
2019-02-14T01:17:39.440Z,97.70
2019-02-14T01:20:08.756Z,97.90
2019-02-14T01:22:38.042Z,98.00
2019-02-14T01:25:07.549Z,97.80
2019-02-14T01:27:36.937Z,97.80
2019-02-14T01:30:09.207Z,97.90
2019-02-14T01:32:38.400Z,97.90
2019-02-14T01:35:09.510Z,97.80
2019-02-14T01:37:38.950Z,97.80
2019-02-14T01:40:08.867Z,97.70
2019-02-14T01:42:37.995Z,97.90
2019-02-14T01:45:10.786Z,97.90
2019-02-14T01:47:40.001Z,97.90
2019-02-14T01:50:11.581Z,97.90
2019-02-14T01:52:40.697Z,98.10
2019-02-14T01:55:10.083Z,98.00
2019-02-14T01:57:39.193Z,97.80
2019-02-14T02:00:12.433Z,97.80
2019-02-14T02:02:41.740Z,97.80
2019-02-14T02:05:10.930Z,98.00
2019-02-14T02:07:40.148Z,98.00
2019-02-14T02:10:11.743Z,98.20
2019-02-14T02:12:41.056Z,98.10
2019-02-14T02:15:12.837Z,98.00
2019-02-14T02:17:42.052Z,98.10
2019-02-14T02:20:11.851Z,98.30
2019-02-14T02:22:41.058Z,98.40
2019-02-14T02:25:12.445Z,98.50
2019-02-14T02:27:41.654Z,98.30
2019-02-14T02:30:15.319Z,98.30
2019-02-14T02:32:44.427Z,98.40
2019-02-14T02:35:13.820Z,98.40
2019-02-14T02:37:42.924Z,98.30
2019-02-14T02:40:12.313Z,98.40
2019-02-14T02:42:41.448Z,98.40
2019-02-14T02:45:12.634Z,98.50
2019-02-14T02:47:41.837Z,98.40
2019-02-14T02:50:12.729Z,98.20
2019-02-14T02:52:41.839Z,98.40
2019-02-14T02:55:11.822Z,98.40
2019-02-14T02:57:41.118Z,98.30
2019-02-14T03:00:17.775Z,98.50
2019-02-14T03:02:46.888Z,98.60
2019-02-14T03:05:16.766Z,98.70
2019-02-14T03:07:45.879Z,98.40
2019-02-14T03:10:15.169Z,98.30
2019-02-14T03:12:44.291Z,98.20
2019-02-14T03:15:15.122Z,98.30
2019-02-14T03:17:44.334Z,98.40
2019-02-14T03:20:13.866Z,98.40
2019-02-14T03:22:43.050Z,98.40
2019-02-14T03:25:17.825Z,98.40
2019-02-14T03:27:47.011Z,98.40
2019-02-14T03:30:18.819Z,98.30
2019-02-14T03:32:48.018Z,98.10
2019-02-14T03:35:17.128Z,98.20
2019-02-14T03:37:46.321Z,97.90
2019-02-14T03:40:15.734Z,97.80
2019-02-14T03:42:45.016Z,97.60
2019-02-14T03:45:16.793Z,97.60
2019-02-14T03:47:46.074Z,97.50
2019-02-14T03:50:15.493Z,97.60
2019-02-14T03:52:44.780Z,97.70
2019-02-14T03:55:13.989Z,97.90
2019-02-14T03:57:43.273Z,98.00
2019-02-14T04:00:14.950Z,98.00
2019-02-14T04:02:44.234Z,98.20
2019-02-14T04:05:13.552Z,98.40
2019-02-14T04:07:42.855Z,98.60
2019-02-14T04:10:14.532Z,98.40
2019-02-14T04:12:43.721Z,98.30
2019-02-14T04:15:17.014Z,98.30
2019-02-14T04:17:46.296Z,98.30
2019-02-14T04:20:15.414Z,98.40
2019-02-14T04:22:44.584Z,98.60
2019-02-14T04:25:13.804Z,98.60
2019-02-14T04:27:43.191Z,98.50
2019-02-14T04:30:13.812Z,98.40
2019-02-14T04:32:43.096Z,98.50
2019-02-14T04:35:12.316Z,98.60
2019-02-14T04:37:41.694Z,98.60
2019-02-14T04:40:12.925Z,98.50
2019-02-14T04:42:42.216Z,98.50
2019-02-14T04:45:13.227Z,98.60
2019-02-14T04:47:42.710Z,98.40
2019-02-14T04:50:12.424Z,98.20
2019-02-14T04:52:41.540Z,98.20
2019-02-14T04:55:11.717Z,98.40
2019-02-14T04:57:40.834Z,98.40
2019-02-14T05:00:12.413Z,98.20
2019-02-14T05:02:41.725Z,98.20
2019-02-14T05:05:11.323Z,98.20
2019-02-14T05:07:40.627Z,98.20
2019-02-14T05:10:11.332Z,98.20
2019-02-14T05:12:40.761Z,98.30
2019-02-14T05:15:11.195Z,98.40
2019-02-14T05:17:40.415Z,98.50
2019-02-14T05:20:11.418Z,98.60
2019-02-14T05:22:40.628Z,98.70
2019-02-14T05:25:10.211Z,99.10
2019-02-14T05:27:39.642Z,99.00
2019-02-14T05:30:14.660Z,98.80
2019-02-14T05:32:43.783Z,98.70
2019-02-14T05:35:13.244Z,98.90
2019-02-14T05:37:42.553Z,98.80
2019-02-14T05:40:12.431Z,98.60
2019-02-14T05:42:41.650Z,98.00
2019-02-14T05:45:13.021Z,97.90
2019-02-14T05:47:42.281Z,98.00
2019-02-14T05:50:14.541Z,98.20
2019-02-14T05:52:43.783Z,98.20
2019-02-14T05:55:13.608Z,98.30
2019-02-14T05:57:42.965Z,98.30
2019-02-14T06:00:14.472Z,98.50
2019-02-14T06:02:43.846Z,98.50
2019-02-14T06:05:13.207Z,98.60
2019-02-14T06:07:42.616Z,98.70
2019-02-14T06:10:31.693Z,99.10
2019-02-14T06:13:01.014Z,98.60
2019-02-14T06:15:30.343Z,98.40
2019-02-14T06:17:59.519Z,98.50
2019-02-14T06:20:28.801Z,98.30
2019-02-14T06:22:58.281Z,98.40
2019-02-14T06:25:27.588Z,98.40
2019-02-14T06:27:56.891Z,98.50
2019-02-14T06:30:26.125Z,98.50
2019-02-14T06:32:55.671Z,98.40
2019-02-14T06:35:24.770Z,98.40
2019-02-14T06:37:54.250Z,98.40
2019-02-14T06:40:23.378Z,98.60
2019-02-14T06:42:52.682Z,98.10
2019-02-14T06:45:21.790Z,98.10
2019-02-14T06:47:50.982Z,98.10
2019-02-14T06:50:20.105Z,98.20
2019-02-14T06:52:49.293Z,98.20
2019-02-14T06:55:18.415Z,98.30
2019-02-14T06:57:47.600Z,98.40
2019-02-14T07:00:17.327Z,98.50
2019-02-14T07:02:46.503Z,98.30
2019-02-14T07:05:15.726Z,98.30
2019-02-14T07:07:44.910Z,97.90
2019-02-14T07:10:14.028Z,97.80
2019-02-14T07:12:43.318Z,97.60
2019-02-14T07:15:13.841Z,97.30
2019-02-14T07:17:43.220Z,97.30
2019-02-14T07:20:14.755Z,97.10
2019-02-14T07:22:44.043Z,96.70
2019-02-14T07:25:13.461Z,96.60
2019-02-14T07:27:42.749Z,96.30
2019-02-14T07:30:22.376Z,96.10
2019-02-14T07:32:51.578Z,96.10
2019-02-14T07:35:20.799Z,96.10
2019-02-14T07:37:50.007Z,96.30
2019-02-14T07:40:19.125Z,96.00
2019-02-14T07:42:48.319Z,95.90
2019-02-14T07:45:18.434Z,96.10
2019-02-14T07:47:47.614Z,96.10
2019-02-14T07:50:16.940Z,95.80
2019-02-14T07:52:46.261Z,95.80
2019-02-14T07:55:15.796Z,96.00
2019-02-14T07:57:44.951Z,95.50
2019-02-14T08:00:20.597Z,96.00
2019-02-14T08:02:49.820Z,96.10
2019-02-14T08:05:18.993Z,95.40
2019-02-14T08:07:48.198Z,95.20
2019-02-14T08:10:20.987Z,95.40
2019-02-14T08:12:50.086Z,95.50
2019-02-14T08:15:19.372Z,94.80
2019-02-14T08:17:48.491Z,93.40
2019-02-14T08:20:21.985Z,91.80
2019-02-14T08:22:51.106Z,87.40
2019-02-14T08:25:20.278Z,82.30
2019-02-14T08:27:49.506Z,77.10
2019-02-14T08:30:19.984Z,77.30
2019-02-14T08:32:49.098Z,79.40
2019-02-14T08:35:18.410Z,83.10
2019-02-14T08:37:47.640Z,86.80
2019-02-14T08:40:30.810Z,85.70
2019-02-14T08:43:00.137Z,84.80
2019-02-14T08:45:29.444Z,83.80
2019-02-14T08:47:58.671Z,83.10
2019-02-14T08:50:27.976Z,82.30
2019-02-14T08:52:57.212Z,80.50
2019-02-14T08:55:26.493Z,80.50
2019-02-14T08:57:55.823Z,79.10
2019-02-14T09:00:25.312Z,76.60
2019-02-14T09:02:54.430Z,76.80
2019-02-14T09:05:23.821Z,78.10
2019-02-14T09:07:54.903Z,78.10
2019-02-14T09:10:24.072Z,77.30
2019-02-14T09:12:53.392Z,78.50
2019-02-14T09:15:23.070Z,79.10
2019-02-14T09:17:52.294Z,80.60
2019-02-14T09:20:22.569Z,82.60
2019-02-14T09:22:51.687Z,83.80
2019-02-14T09:25:21.092Z,84.00
2019-02-14T09:27:50.313Z,84.70
2019-02-14T09:30:19.805Z,85.90
2019-02-14T09:32:49.043Z,86.40
2019-02-14T09:35:18.251Z,86.60
2019-02-14T09:37:47.370Z,86.90
2019-02-14T09:40:19.717Z,85.80
2019-02-14T09:42:48.939Z,85.70
2019-02-14T09:45:18.382Z,86.00
2019-02-14T09:47:47.662Z,84.50
2019-02-14T09:50:17.023Z,85.10
2019-02-14T09:52:46.189Z,82.40
2019-02-14T09:55:15.833Z,82.60
2019-02-14T09:57:45.176Z,83.60
2019-02-14T10:00:18.955Z,83.50
2019-02-14T10:02:48.398Z,82.00
2019-02-14T10:05:17.874Z,81.50
2019-02-14T10:07:47.468Z,81.10
2019-02-14T10:10:21.786Z,82.10
2019-02-14T10:12:51.199Z,83.20
2019-02-14T10:15:20.616Z,84.60
2019-02-14T10:17:49.788Z,84.10
2019-02-14T10:20:19.219Z,83.00
2019-02-14T10:22:48.505Z,82.10
2019-02-14T10:25:17.842Z,82.00
2019-02-14T10:27:47.221Z,82.60
2019-02-14T10:30:19.395Z,81.30
2019-02-14T10:32:48.791Z,81.80
2019-02-14T10:35:17.996Z,80.70
2019-02-14T10:37:48.653Z,81.00
2019-02-14T10:40:18.102Z,80.90
2019-02-14T10:42:47.476Z,81.30
2019-02-14T10:45:19.068Z,80.90
2019-02-14T10:47:48.464Z,79.60
2019-02-14T10:50:17.793Z,79.50
2019-02-14T10:52:47.211Z,79.50
2019-02-14T10:55:16.847Z,77.40
2019-02-14T10:57:46.231Z,76.00
2019-02-14T11:00:18.158Z,72.90
2019-02-14T11:02:47.752Z,73.10
2019-02-14T11:05:17.787Z,75.30
2019-02-14T11:07:47.321Z,71.90
2019-02-14T11:10:16.924Z,70.20
2019-02-14T11:12:46.439Z,71.30
2019-02-14T11:15:17.968Z,69.80
2019-02-14T11:17:48.913Z,71.90
2019-02-14T11:20:18.521Z,71.60
2019-02-14T11:22:48.982Z,69.30
2019-02-14T11:25:23.991Z,70.00
2019-02-14T11:27:53.403Z,71.00
2019-02-14T11:30:22.732Z,66.80
2019-02-14T11:32:51.985Z,67.60
2019-02-14T11:35:21.374Z,66.50
2019-02-14T11:37:50.498Z,66.30
2019-02-14T11:40:19.893Z,66.30
2019-02-14T11:42:49.311Z,66.50
2019-02-14T11:45:23.596Z,64.00
2019-02-14T11:47:52.818Z,66.50
2019-02-14T11:50:21.987Z,65.90
2019-02-14T11:52:51.444Z,64.00
2019-02-14T11:55:20.832Z,62.90
2019-02-14T11:57:50.114Z,63.70
2019-02-14T12:00:25.888Z,59.40
2019-02-14T12:02:56.181Z,54.90
2019-02-14T12:05:25.598Z,53.40
2019-02-14T12:07:54.905Z,53.10
2019-02-14T12:10:24.209Z,53.60
2019-02-14T12:12:53.435Z,55.10
2019-02-14T12:15:23.405Z,53.20
2019-02-14T12:17:52.913Z,54.70
2019-02-14T12:20:22.193Z,52.80
2019-02-14T12:22:51.481Z,50.20
2019-02-14T12:25:23.481Z,52.00
2019-02-14T12:27:52.606Z,48.10
2019-02-14T12:30:22.098Z,46.90
2019-02-14T12:32:51.323Z,46.00
2019-02-14T12:35:20.811Z,46.00
2019-02-14T12:37:50.033Z,45.90
2019-02-14T12:40:19.206Z,45.40
2019-02-14T12:42:48.324Z,43.50
2019-02-14T12:45:24.259Z,45.00
2019-02-14T12:47:53.453Z,44.30
2019-02-14T12:50:22.640Z,46.30
2019-02-14T12:52:51.740Z,46.40
2019-02-14T12:55:20.918Z,46.90
2019-02-14T12:57:50.036Z,44.80
2019-02-14T13:00:24.326Z,45.60
2019-02-14T13:02:53.532Z,43.70
2019-02-14T13:05:23.022Z,44.20
2019-02-14T13:07:52.239Z,43.90
2019-02-14T13:10:21.340Z,44.00
2019-02-14T13:12:50.636Z,44.20
2019-02-14T13:15:27.684Z,39.80
2019-02-14T13:17:56.860Z,39.60
2019-02-14T13:20:26.081Z,38.90
2019-02-14T13:22:55.272Z,36.50
2019-02-14T13:25:24.576Z,33.90
2019-02-14T13:27:53.791Z,36.60
2019-02-14T13:30:25.554Z,37.00
2019-02-14T13:32:54.933Z,39.80
2019-02-14T13:35:24.055Z,36.50
2019-02-14T13:37:53.254Z,37.20
2019-02-14T13:40:23.711Z,38.80
2019-02-14T13:42:52.972Z,37.00
2019-02-14T13:45:24.006Z,38.20
2019-02-14T13:47:53.283Z,37.60
2019-02-14T13:50:22.619Z,37.10
2019-02-14T13:52:52.006Z,33.20
2019-02-14T13:55:21.242Z,34.60
2019-02-14T13:57:50.702Z,35.90
2019-02-14T14:00:25.406Z,36.60
2019-02-14T14:02:54.590Z,38.00
2019-02-14T14:05:23.808Z,34.90
2019-02-14T14:07:53.098Z,36.90
2019-02-14T14:10:22.319Z,35.00
2019-02-14T14:12:51.498Z,34.10
2019-02-14T14:15:20.607Z,35.70
2019-02-14T14:17:49.799Z,34.90
2019-02-14T14:20:18.918Z,34.20
2019-02-14T14:22:48.110Z,35.00
2019-02-14T14:25:17.334Z,38.00
2019-02-14T14:27:46.607Z,37.70
2019-02-14T14:30:15.937Z,38.90
2019-02-14T14:32:45.116Z,39.00
2019-02-14T14:35:14.345Z,38.10
2019-02-14T14:37:43.573Z,40.00
2019-02-14T14:40:21.811Z,39.30
2019-02-14T14:42:52.609Z,37.50
2019-02-14T14:45:41.584Z,38.00
2019-02-14T14:48:19.274Z,37.60
2019-02-14T14:50:43.087Z,37.90
2019-02-14T14:53:12.391Z,39.30
2019-02-14T14:55:41.610Z,39.50
2019-02-14T14:58:11.640Z,41.40
2019-02-14T15:00:41.039Z,41.40
2019-02-14T15:03:10.270Z,41.30
2019-02-14T15:05:39.446Z,41.40
2019-02-14T15:08:08.568Z,43.70
2019-02-14T15:10:37.850Z,43.70
2019-02-14T15:13:06.981Z,43.60
2019-02-14T15:15:36.163Z,43.90
2019-02-14T15:18:05.382Z,46.20
2019-02-14T15:20:34.564Z,46.90
2019-02-14T15:23:03.682Z,46.80
2019-02-14T15:25:32.866Z,46.20
2019-02-14T15:28:01.967Z,51.80
2019-02-14T15:30:31.176Z,46.10
2019-02-14T15:33:00.299Z,48.00
2019-02-14T15:35:29.593Z,48.20
2019-02-14T15:37:58.711Z,43.40
2019-02-14T15:40:28.121Z,46.90
2019-02-14T15:42:57.238Z,44.10
2019-02-14T15:45:26.423Z,42.90
2019-02-14T15:47:55.544Z,48.20
2019-02-14T15:50:24.826Z,45.90
2019-02-14T15:52:54.676Z,46.60
2019-02-14T15:55:24.682Z,46.30
2019-02-14T15:57:53.803Z,45.60
2019-02-14T16:00:23.094Z,46.90
2019-02-14T16:02:52.638Z,45.90
2019-02-14T16:05:21.892Z,46.50
2019-02-14T16:07:51.015Z,48.90
2019-02-14T16:10:20.283Z,51.90
2019-02-14T16:12:49.395Z,54.00
2019-02-14T16:15:18.667Z,55.70
2019-02-14T16:17:47.884Z,56.20
2019-02-14T16:20:17.526Z,57.00
2019-02-14T16:22:48.020Z,59.30
2019-02-14T16:25:17.228Z,60.10
2019-02-14T16:27:48.100Z,62.40
2019-02-14T16:30:17.147Z,62.00
2019-02-14T16:32:46.410Z,63.30
2019-02-14T16:35:15.729Z,65.80
2019-02-14T16:37:46.521Z,67.00
2019-02-14T16:40:15.739Z,68.10
2019-02-14T16:42:44.909Z,69.50
2019-02-14T16:45:14.123Z,71.50
2019-02-14T16:47:43.723Z,72.10
2019-02-14T16:50:47.821Z,73.00
2019-02-14T16:53:16.966Z,74.50
2019-02-14T16:55:46.181Z,75.30
2019-02-14T16:58:24.632Z,75.40
2019-02-14T17:00:53.851Z,75.50
2019-02-14T17:03:59.045Z,75.50
2019-02-14T17:06:28.427Z,74.20
2019-02-14T17:08:57.841Z,73.60
2019-02-14T17:11:52.220Z,74.50
2019-02-14T17:14:21.446Z,75.10
2019-02-14T17:16:50.843Z,75.50
2019-02-14T17:19:20.177Z,75.60
2019-02-14T17:21:49.470Z,77.50
2019-02-14T17:24:18.585Z,77.60
2019-02-14T17:26:47.813Z,78.20
2019-02-14T17:29:17.133Z,78.40
2019-02-14T17:31:46.348Z,79.60
2019-02-14T17:34:15.519Z,80.00
2019-02-14T17:36:44.731Z,79.00
2019-02-14T17:39:13.911Z,80.10
2019-02-14T17:41:43.027Z,80.90
2019-02-14T17:44:28.077Z,82.20
2019-02-14T17:47:10.387Z,83.30
2019-02-14T17:52:40.813Z,83.30
2019-02-14T17:55:10.791Z,84.70
2019-02-14T17:57:40.015Z,84.00
2019-02-14T18:00:15.163Z,85.10
2019-02-14T18:02:44.452Z,84.30
2019-02-14T18:05:13.874Z,85.10
2019-02-14T18:07:42.990Z,85.00
2019-02-14T18:10:13.577Z,85.40
2019-02-14T18:12:42.773Z,85.00
2019-02-14T18:15:14.066Z,84.30
2019-02-14T18:17:43.285Z,86.10
2019-02-14T18:20:12.760Z,86.50
2019-02-14T18:22:42.107Z,86.30
2019-02-14T18:25:12.295Z,87.10
2019-02-14T18:27:41.522Z,87.40
2019-02-14T18:30:11.993Z,87.80
2019-02-14T18:32:41.455Z,87.80
2019-02-14T18:35:12.699Z,87.10
2019-02-14T18:37:42.124Z,87.60
2019-02-14T18:40:13.054Z,87.70
2019-02-14T18:42:44.383Z,88.00
2019-02-14T18:45:14.450Z,87.60
2019-02-14T18:47:43.559Z,88.30
2019-02-14T18:50:15.817Z,89.20
2019-02-14T18:52:45.033Z,89.20
2019-02-14T18:55:14.318Z,90.10
2019-02-14T18:57:43.639Z,90.30
2019-02-14T19:00:18.061Z,90.30
2019-02-14T19:02:47.188Z,90.20
2019-02-14T19:05:16.478Z,89.90
2019-02-14T19:07:45.694Z,90.10
2019-02-14T19:10:16.665Z,90.50
2019-02-14T19:12:45.801Z,90.40
2019-02-14T19:15:15.370Z,90.40
2019-02-14T19:17:44.593Z,90.40
2019-02-14T19:20:14.576Z,91.00
2019-02-14T19:22:43.898Z,91.00
2019-02-14T19:25:13.163Z,91.10
2019-02-14T19:27:44.982Z,90.70
2019-02-14T19:30:14.775Z,90.80
2019-02-14T19:32:43.902Z,90.40
2019-02-14T19:35:21.004Z,90.90
2019-02-14T19:37:44.054Z,91.00
2019-02-14T19:40:13.341Z,91.10
2019-02-14T19:42:42.437Z,91.00
2019-02-14T19:45:12.543Z,91.20
2019-02-14T19:47:41.851Z,91.30
2019-02-14T19:50:13.142Z,91.40
2019-02-14T19:52:42.335Z,91.80
2019-02-14T19:55:11.733Z,91.20
2019-02-14T19:57:41.074Z,91.30
2019-02-14T20:00:16.279Z,91.90
2019-02-14T20:02:45.582Z,91.70
2019-02-14T20:05:14.964Z,92.10
2019-02-14T20:07:44.335Z,92.00
2019-02-14T20:10:14.817Z,92.30
2019-02-14T20:12:44.070Z,92.30
2019-02-14T20:15:18.401Z,92.40
2019-02-14T20:17:47.612Z,92.20
2019-02-14T20:20:16.930Z,92.60
2019-02-14T20:22:46.125Z,92.50
2019-02-14T20:25:29.421Z,92.80
2019-02-14T20:27:58.532Z,92.90
2019-02-14T20:30:27.820Z,93.00
2019-02-14T20:33:04.401Z,93.00
2019-02-14T20:35:27.594Z,92.90
2019-02-14T20:37:56.769Z,92.90
2019-02-14T20:40:25.880Z,92.90
2019-02-14T20:42:55.058Z,93.10
2019-02-14T20:45:24.272Z,93.30
2019-02-14T20:47:56.690Z,92.90
2019-02-14T20:50:24.231Z,93.30
2019-02-14T20:52:53.408Z,93.40
2019-02-14T20:55:25.023Z,93.30
2019-02-14T20:57:54.207Z,93.30
2019-02-14T21:00:31.089Z,93.40
2019-02-14T21:03:00.472Z,93.10
2019-02-14T21:05:29.891Z,93.00
2019-02-14T21:07:59.059Z,93.40
2019-02-14T21:10:28.369Z,93.80
2019-02-14T21:12:57.651Z,93.50
2019-02-14T21:15:26.840Z,93.90
2019-02-14T21:17:56.027Z,93.80
2019-02-14T21:20:25.251Z,94.10
2019-02-14T21:22:54.428Z,94.00
2019-02-14T21:25:24.178Z,94.30
2019-02-14T21:27:53.400Z,94.20
2019-02-14T21:30:22.521Z,94.00
2019-02-14T21:32:51.709Z,94.30
2019-02-14T21:35:20.831Z,94.10
2019-02-14T21:37:50.133Z,93.90
2019-02-14T21:40:20.303Z,94.30
2019-02-14T21:42:49.501Z,94.00
2019-02-14T21:45:18.832Z,94.40
2019-02-14T21:47:48.033Z,94.10
2019-02-14T21:50:17.209Z,94.10
2019-02-14T21:52:46.728Z,94.20
2019-02-14T21:55:16.703Z,94.50
2019-02-14T21:57:46.021Z,94.40
2019-02-14T22:00:28.601Z,94.40
2019-02-14T22:02:57.876Z,94.30
2019-02-14T22:05:27.173Z,94.30
2019-02-14T22:07:56.307Z,94.40
2019-02-14T22:10:25.582Z,94.50
2019-02-14T22:12:54.678Z,94.60
2019-02-14T22:15:28.818Z,94.50
2019-02-14T22:17:57.929Z,94.40
2019-02-14T22:20:27.120Z,94.60
2019-02-14T22:22:56.235Z,94.60
2019-02-14T22:25:25.516Z,94.60
2019-02-14T22:27:54.635Z,94.60
2019-02-14T22:30:24.017Z,94.80
2019-02-14T22:32:53.135Z,94.60
2019-02-14T22:35:22.345Z,94.70
2019-02-14T22:37:51.446Z,94.90
2019-02-14T22:40:20.622Z,95.10
2019-02-14T22:42:49.734Z,94.90
2019-02-14T22:45:19.011Z,95.00
2019-02-14T22:47:48.120Z,95.10
2019-02-14T22:50:17.406Z,95.20
2019-02-14T22:52:46.528Z,95.40
2019-02-14T22:55:15.796Z,95.30
2019-02-14T22:57:45.007Z,95.50
2019-02-14T23:00:21.231Z,95.30
2019-02-14T23:02:50.349Z,95.20
2019-02-14T23:05:19.528Z,95.40
2019-02-14T23:07:48.642Z,95.30
2019-02-14T23:10:17.815Z,95.30
2019-02-14T23:12:55.165Z,95.50
2019-02-14T23:15:17.859Z,95.60
2019-02-14T23:17:46.988Z,95.60
2019-02-14T23:20:16.275Z,95.70
2019-02-14T23:22:45.403Z,95.70
2019-02-14T23:25:14.671Z,95.50
2019-02-14T23:27:43.890Z,95.50
2019-02-14T23:30:13.485Z,95.50
2019-02-14T23:32:42.590Z,95.40
2019-02-14T23:35:12.075Z,95.50
2019-02-14T23:37:41.191Z,95.70
2019-02-14T23:40:10.511Z,95.50
2019-02-14T23:42:39.696Z,95.70
2019-02-14T23:45:10.318Z,95.60
2019-02-14T23:47:39.613Z,95.60
2019-02-14T23:50:10.989Z,95.50
2019-02-14T23:52:40.162Z,95.50
2019-02-14T23:55:09.774Z,95.50
2019-02-14T23:57:39.055Z,95.70
